This is the latest recevied weather packets stored in our database for station/object NE8U. If no packets are shown the sender has not sent any weather packets the latest 10 day(s).
| Time | Temp. | Humidity | Pressure | Rain* | Wind** | Luminosity | Snow |
|---|---|---|---|---|---|---|---|
| 1778008720 | 21.11° C | 54% | 1013.1 hPa | 0 mm | - | 665 W/m² | - |
| 1778008419 | 21.67° C | 52% | 1013 hPa | 0 mm | - | 200 W/m² | - |
| 1778008115 | 21.11° C | 51% | 1013.1 hPa | 0 mm | - | 293 W/m² | - |
| 1778007810 | 20.56° C | 54% | 1013.4 hPa | 0 mm | - | 210 W/m² | - |
| 1778007506 | 20.56° C | 54% | 1013.5 hPa | 0 mm | - | 189 W/m² | - |
| 1778007203 | 20.56° C | 54% | 1013.4 hPa | 0 mm | - | 181 W/m² | - |
| 1778006899 | 21.11° C | 53% | 1013.7 hPa | 0 mm | - | 215 W/m² | - |
| 1778006596 | 21.67° C | 50% | 1013.4 hPa | 0 mm | - | 961 W/m² | - |
| 1778006293 | 22.22° C | 50% | 1013.8 hPa | 0 mm | - | 266 W/m² | - |
| 1778005990 | 22.22° C | 51% | 1013.7 hPa | 0 mm | - | 238 W/m² | - |
| 1778005687 | 21.11° C | 52% | 1013.9 hPa | 0 mm | - | 320 W/m² | - |
| 1778005384 | 22.22° C | 50% | 1013.8 hPa | 0 mm | - | 235 W/m² | - |
| 1778005080 | 22.22° C | 51% | 1013.9 hPa | 0 mm | - | 281 W/m² | - |
| 1778004777 | 22.22° C | 49% | 1013.9 hPa | 0 mm | - | 892 W/m² | - |
| 1778004474 | 21.67° C | 52% | 1013.9 hPa | 0 mm | - | 327 W/m² | - |
| 1778004170 | 22.22° C | 53% | 1014 hPa | 0 mm | - | 475 W/m² | - |
| 1778003867 | 20° C | 58% | 1014.1 hPa | 0 mm | - | 968 W/m² | - |
| 1778003564 | 19.44° C | 60% | 1014.1 hPa | 0 mm | - | 285 W/m² | - |
| 1778003260 | 19.44° C | 60% | 1014.2 hPa | 0 mm | - | 255 W/m² | - |
| 1778002957 | 20° C | 60% | 1014.3 hPa | 0 mm | - | 317 W/m² | - |
| 1778002653 | 20° C | 60% | 1014.3 hPa | 0 mm | - | 329 W/m² | - |
| 1778002350 | 19.44° C | 61% | 1014.6 hPa | 0 mm | - | 281 W/m² | - |
| 1778002047 | 19.44° C | 62% | 1014.4 hPa | 0 mm | - | 245 W/m² | - |
| 1778001744 | 19.44° C | 62% | 1014.4 hPa | 0 mm | - | 254 W/m² | - |
| 1778001444 | 19.44° C | 61% | 1014.2 hPa | 0 mm | - | 250 W/m² | - |
* Rain latest hour (hover to see other rain measurements)
** Current wind speed in m/s (hover to see current wind gust speed)